Tuzla, Bosnia and Herzegovina
Current Conditions -  °F | °C
As of 9:00 PM on Sunday 21 Dec 2014 (Local Time) from LQTZ Reporting Station
Clear Clear  
Wind Chill: 30°   Ceiling: Unl
Heat Index: 30°   Visibility: 6mi
Dew Point: 28°   Wind: 2mph
Humidity: 93%   Direction: NA
Pressure: 30.48"   Gusts: NA
Location:  44.54°N, 18.68°E
Report Text: LQTZ 211900Z VRB02KT CAVOK M01/M02 Q1032
Loading
Personal Weather Stations






























Interactive Weather Map New forecast layout! Learn more

10-Day Weather Forecast

Advertisements
Track Severe Weather on mobile